sensor_id;sensor_type;location;lat;lon;timestamp;temperature;humidity
43143;DHT22;28750;59.842;17.584;2023-10-13T00:00:33;4.80;99.90
43143;DHT22;28750;59.842;17.584;2023-10-13T00:03:04;4.70;99.90
43143;DHT22;28750;59.842;17.584;2023-10-13T00:05:33;4.50;99.90
43143;DHT22;28750;59.842;17.584;2023-10-13T00:08:02;4.50;99.90
43143;DHT22;28750;59.842;17.584;2023-10-13T00:10:32;4.40;99.90
43143;DHT22;28750;59.842;17.584;2023-10-13T00:13:00;4.40;99.90
43143;DHT22;28750;59.842;17.584;2023-10-13T00:15:45;4.50;99.90
43143;DHT22;28750;59.842;17.584;2023-10-13T00:18:24;4.40;99.90
43143;DHT22;28750;59.842;17.584;2023-10-13T00:20:53;4.50;99.90
43143;DHT22;28750;59.842;17.584;2023-10-13T00:23:22;4.40;99.90
43143;DHT22;28750;59.842;17.584;2023-10-13T00:25:53;4.40;99.90
43143;DHT22;28750;59.842;17.584;2023-10-13T00:28:25;4.30;99.90
43143;DHT22;28750;59.842;17.584;2023-10-13T00:31:01;4.30;99.90
43143;DHT22;28750;59.842;17.584;2023-10-13T00:33:37;4.20;99.90
43143;DHT22;28750;59.842;17.584;2023-10-13T00:36:07;4.20;99.90
43143;DHT22;28750;59.842;17.584;2023-10-13T00:38:35;4.10;99.90
43143;DHT22;28750;59.842;17.584;2023-10-13T00:41:02;4.20;99.90
43143;DHT22;28750;59.842;17.584;2023-10-13T00:43:47;4.10;99.90
43143;DHT22;28750;59.842;17.584;2023-10-13T00:46:31;4.00;99.90
43143;DHT22;28750;59.842;17.584;2023-10-13T00:48:59;3.90;99.90
43143;DHT22;28750;59.842;17.584;2023-10-13T00:51:27;3.80;99.90
43143;DHT22;28750;59.842;17.584;2023-10-13T00:54:04;3.90;99.90
43143;DHT22;28750;59.842;17.584;2023-10-13T00:56:40;3.70;99.90
43143;DHT22;28750;59.842;17.584;2023-10-13T00:59:14;3.80;99.90
43143;DHT22;28750;59.842;17.584;2023-10-13T01:01:41;3.80;99.90
43143;DHT22;28750;59.842;17.584;2023-10-13T01:04:10;3.70;99.90
43143;DHT22;28750;59.842;17.584;2023-10-13T01:06:39;3.70;99.90
43143;DHT22;28750;59.842;17.584;2023-10-13T01:09:08;3.70;99.90
43143;DHT22;28750;59.842;17.584;2023-10-13T01:11:42;3.80;99.90
43143;DHT22;28750;59.842;17.584;2023-10-13T01:14:11;3.80;99.90
43143;DHT22;28750;59.842;17.584;2023-10-13T01:16:40;3.70;99.90
43143;DHT22;28750;59.842;17.584;2023-10-13T01:19:16;3.80;99.90
43143;DHT22;28750;59.842;17.584;2023-10-13T01:21:44;3.80;99.90
43143;DHT22;28750;59.842;17.584;2023-10-13T01:24:13;4.00;99.90
43143;DHT22;28750;59.842;17.584;2023-10-13T01:26:44;4.00;99.90
43143;DHT22;28750;59.842;17.584;2023-10-13T01:29:17;4.10;99.90
43143;DHT22;28750;59.842;17.584;2023-10-13T01:31:45;4.10;99.90
43143;DHT22;28750;59.842;17.584;2023-10-13T01:36:39;4.20;99.90
43143;DHT22;28750;59.842;17.584;2023-10-13T01:39:08;4.30;99.90
43143;DHT22;28750;59.842;17.584;2023-10-13T01:41:37;4.10;99.90
43143;DHT22;28750;59.842;17.584;2023-10-13T01:44:05;4.10;99.90
43143;DHT22;28750;59.842;17.584;2023-10-13T01:46:31;4.20;99.90
43143;DHT22;28750;59.842;17.584;2023-10-13T01:49:02;4.30;99.90
43143;DHT22;28750;59.842;17.584;2023-10-13T01:51:29;4.10;99.90
43143;DHT22;28750;59.842;17.584;2023-10-13T01:53:56;4.40;99.90
43143;DHT22;28750;59.842;17.584;2023-10-13T01:56:22;4.30;99.90
43143;DHT22;28750;59.842;17.584;2023-10-13T01:58:50;4.50;99.90
43143;DHT22;28750;59.842;17.584;2023-10-13T02:01:17;4.40;99.90
43143;DHT22;28750;59.842;17.584;2023-10-13T02:03:58;4.40;99.90
43143;DHT22;28750;59.842;17.584;2023-10-13T02:06:29;4.40;99.90
43143;DHT22;28750;59.842;17.584;2023-10-13T02:09:06;4.40;99.90
43143;DHT22;28750;59.842;17.584;2023-10-13T02:11:42;4.30;99.90
43143;DHT22;28750;59.842;17.584;2023-10-13T02:14:12;4.40;99.90
43143;DHT22;28750;59.842;17.584;2023-10-13T02:16:39;4.40;99.90
43143;DHT22;28750;59.842;17.584;2023-10-13T02:19:06;4.40;99.90
43143;DHT22;28750;59.842;17.584;2023-10-13T02:21:34;4.40;99.90
43143;DHT22;28750;59.842;17.584;2023-10-13T02:24:08;4.40;99.90
43143;DHT22;28750;59.842;17.584;2023-10-13T02:26:42;4.40;99.90
43143;DHT22;28750;59.842;17.584;2023-10-13T02:29:09;4.30;99.90
43143;DHT22;28750;59.842;17.584;2023-10-13T02:31:40;4.30;99.90
43143;DHT22;28750;59.842;17.584;2023-10-13T02:34:08;4.30;99.90
43143;DHT22;28750;59.842;17.584;2023-10-13T02:36:35;4.30;99.90
43143;DHT22;28750;59.842;17.584;2023-10-13T02:39:13;4.20;99.90
43143;DHT22;28750;59.842;17.584;2023-10-13T02:41:40;4.20;99.90
43143;DHT22;28750;59.842;17.584;2023-10-13T02:44:13;4.20;99.90
43143;DHT22;28750;59.842;17.584;2023-10-13T02:46:46;4.00;99.90
43143;DHT22;28750;59.842;17.584;2023-10-13T02:49:16;4.00;99.90
43143;DHT22;28750;59.842;17.584;2023-10-13T02:51:45;4.00;99.90
43143;DHT22;28750;59.842;17.584;2023-10-13T02:54:12;4.00;99.90
43143;DHT22;28750;59.842;17.584;2023-10-13T02:56:44;4.00;99.90
43143;DHT22;28750;59.842;17.584;2023-10-13T02:59:15;4.00;99.90
43143;DHT22;28750;59.842;17.584;2023-10-13T03:01:45;4.00;99.90
43143;DHT22;28750;59.842;17.584;2023-10-13T03:04:11;4.10;99.90
43143;DHT22;28750;59.842;17.584;2023-10-13T03:06:38;4.00;99.90
43143;DHT22;28750;59.842;17.584;2023-10-13T03:09:10;4.00;99.90
43143;DHT22;28750;59.842;17.584;2023-10-13T03:11:45;3.90;99.90
43143;DHT22;28750;59.842;17.584;2023-10-13T03:14:17;3.80;99.90
43143;DHT22;28750;59.842;17.584;2023-10-13T03:16:56;3.80;99.90
43143;DHT22;28750;59.842;17.584;2023-10-13T03:19:28;3.80;99.90
43143;DHT22;28750;59.842;17.584;2023-10-13T03:21:59;3.70;99.90
43143;DHT22;28750;59.842;17.584;2023-10-13T03:24:35;3.60;99.90
43143;DHT22;28750;59.842;17.584;2023-10-13T03:27:03;3.60;99.90
43143;DHT22;28750;59.842;17.584;2023-10-13T03:29:35;3.50;99.90
43143;DHT22;28750;59.842;17.584;2023-10-13T03:32:04;3.40;99.90
43143;DHT22;28750;59.842;17.584;2023-10-13T03:34:38;3.30;99.90
43143;DHT22;28750;59.842;17.584;2023-10-13T03:37:17;3.30;99.90
43143;DHT22;28750;59.842;17.584;2023-10-13T03:40:02;3.40;99.90
43143;DHT22;28750;59.842;17.584;2023-10-13T03:42:32;3.30;99.90
43143;DHT22;28750;59.842;17.584;2023-10-13T03:44:59;3.30;99.90
43143;DHT22;28750;59.842;17.584;2023-10-13T03:47:27;3.20;99.90
43143;DHT22;28750;59.842;17.584;2023-10-13T03:49:57;3.10;99.90
43143;DHT22;28750;59.842;17.584;2023-10-13T03:52:38;3.10;99.90
43143;DHT22;28750;59.842;17.584;2023-10-13T03:55:06;3.10;99.90
43143;DHT22;28750;59.842;17.584;2023-10-13T03:57:41;3.00;99.90
43143;DHT22;28750;59.842;17.584;2023-10-13T04:00:09;3.00;99.90
43143;DHT22;28750;59.842;17.584;2023-10-13T04:02:47;2.90;99.90
43143;DHT22;28750;59.842;17.584;2023-10-13T04:05:20;3.00;99.90
43143;DHT22;28750;59.842;17.584;2023-10-13T04:08:05;2.90;99.90
43143;DHT22;28750;59.842;17.584;2023-10-13T04:10:51;2.90;99.90
43143;DHT22;28750;59.842;17.584;2023-10-13T04:13:44;2.80;99.90
43143;DHT22;28750;59.842;17.584;2023-10-13T04:16:27;2.80;99.90
43143;DHT22;28750;59.842;17.584;2023-10-13T04:19:16;2.70;99.90
43143;DHT22;28750;59.842;17.584;2023-10-13T04:21:49;2.80;99.90
43143;DHT22;28750;59.842;17.584;2023-10-13T04:24:26;2.70;99.90
43143;DHT22;28750;59.842;17.584;2023-10-13T04:27:19;2.70;99.90
43143;DHT22;28750;59.842;17.584;2023-10-13T04:30:06;2.60;99.90
43143;DHT22;28750;59.842;17.584;2023-10-13T04:32:49;2.70;99.90
43143;DHT22;28750;59.842;17.584;2023-10-13T04:35:32;2.60;99.90
43143;DHT22;28750;59.842;17.584;2023-10-13T04:38:02;2.70;99.90
43143;DHT22;28750;59.842;17.584;2023-10-13T04:40:43;2.70;99.90
43143;DHT22;28750;59.842;17.584;2023-10-13T04:43:25;2.60;99.90
43143;DHT22;28750;59.842;17.584;2023-10-13T04:46:19;2.70;99.90
43143;DHT22;28750;59.842;17.584;2023-10-13T04:49:01;2.60;99.90
43143;DHT22;28750;59.842;17.584;2023-10-13T04:51:37;2.60;99.90
43143;DHT22;28750;59.842;17.584;2023-10-13T04:54:27;2.70;99.90
43143;DHT22;28750;59.842;17.584;2023-10-13T04:56:59;2.70;99.90
43143;DHT22;28750;59.842;17.584;2023-10-13T04:59:40;2.60;99.90
43143;DHT22;28750;59.842;17.584;2023-10-13T05:02:21;2.60;99.90
43143;DHT22;28750;59.842;17.584;2023-10-13T05:05:09;2.70;99.90
43143;DHT22;28750;59.842;17.584;2023-10-13T05:08:08;2.50;99.90
43143;DHT22;28750;59.842;17.584;2023-10-13T05:10:52;2.30;99.90
43143;DHT22;28750;59.842;17.584;2023-10-13T05:13:36;2.30;99.90
43143;DHT22;28750;59.842;17.584;2023-10-13T05:16:20;2.20;99.90
43143;DHT22;28750;59.842;17.584;2023-10-13T05:19:04;2.20;99.90
43143;DHT22;28750;59.842;17.584;2023-10-13T05:21:49;2.20;99.90
43143;DHT22;28750;59.842;17.584;2023-10-13T05:24:33;2.20;99.90
43143;DHT22;28750;59.842;17.584;2023-10-13T05:27:17;2.30;99.90
43143;DHT22;28750;59.842;17.584;2023-10-13T05:30:01;2.30;99.90
43143;DHT22;28750;59.842;17.584;2023-10-13T05:32:45;2.10;99.90
43143;DHT22;28750;59.842;17.584;2023-10-13T05:35:31;2.20;99.90
43143;DHT22;28750;59.842;17.584;2023-10-13T05:38:15;2.20;99.90
43143;DHT22;28750;59.842;17.584;2023-10-13T05:41:04;2.30;99.90
43143;DHT22;28750;59.842;17.584;2023-10-13T05:43:49;2.40;99.90
43143;DHT22;28750;59.842;17.584;2023-10-13T05:46:34;2.50;99.90
43143;DHT22;28750;59.842;17.584;2023-10-13T05:49:23;2.60;99.90
43143;DHT22;28750;59.842;17.584;2023-10-13T05:52:10;2.50;99.90
43143;DHT22;28750;59.842;17.584;2023-10-13T05:55:05;2.50;99.90
43143;DHT22;28750;59.842;17.584;2023-10-13T05:57:50;2.50;99.90
43143;DHT22;28750;59.842;17.584;2023-10-13T06:00:39;2.50;99.90
43143;DHT22;28750;59.842;17.584;2023-10-13T06:03:23;2.50;99.90
43143;DHT22;28750;59.842;17.584;2023-10-13T06:06:08;2.60;99.90
43143;DHT22;28750;59.842;17.584;2023-10-13T06:08:51;2.50;99.90
43143;DHT22;28750;59.842;17.584;2023-10-13T06:11:47;2.40;99.90
43143;DHT22;28750;59.842;17.584;2023-10-13T06:14:31;2.40;99.90
43143;DHT22;28750;59.842;17.584;2023-10-13T06:17:15;2.60;99.90
43143;DHT22;28750;59.842;17.584;2023-10-13T06:19:59;2.50;99.90
43143;DHT22;28750;59.842;17.584;2023-10-13T06:22:47;2.60;99.90
43143;DHT22;28750;59.842;17.584;2023-10-13T06:25:31;2.70;99.90
43143;DHT22;28750;59.842;17.584;2023-10-13T06:28:16;2.80;99.90
43143;DHT22;28750;59.842;17.584;2023-10-13T06:31:03;2.90;99.90
43143;DHT22;28750;59.842;17.584;2023-10-13T06:33:34;2.90;99.90
43143;DHT22;28750;59.842;17.584;2023-10-13T06:36:02;3.20;99.90
43143;DHT22;28750;59.842;17.584;2023-10-13T06:38:35;3.10;99.90
43143;DHT22;28750;59.842;17.584;2023-10-13T06:41:06;3.30;99.90
43143;DHT22;28750;59.842;17.584;2023-10-13T06:43:37;3.50;99.90
43143;DHT22;28750;59.842;17.584;2023-10-13T06:46:15;3.80;99.90
43143;DHT22;28750;59.842;17.584;2023-10-13T06:48:49;3.70;99.90
43143;DHT22;28750;59.842;17.584;2023-10-13T06:51:18;4.00;99.90
43143;DHT22;28750;59.842;17.584;2023-10-13T06:53:48;4.20;99.90
43143;DHT22;28750;59.842;17.584;2023-10-13T06:56:22;4.40;99.90
43143;DHT22;28750;59.842;17.584;2023-10-13T06:58:52;4.70;99.90
43143;DHT22;28750;59.842;17.584;2023-10-13T07:01:28;4.80;99.90
43143;DHT22;28750;59.842;17.584;2023-10-13T07:03:55;4.90;99.90
43143;DHT22;28750;59.842;17.584;2023-10-13T07:06:27;5.10;99.90
43143;DHT22;28750;59.842;17.584;2023-10-13T07:08:57;5.20;99.90
43143;DHT22;28750;59.842;17.584;2023-10-13T07:11:29;5.20;99.90
43143;DHT22;28750;59.842;17.584;2023-10-13T07:14:08;5.20;99.90
43143;DHT22;28750;59.842;17.584;2023-10-13T07:16:43;5.20;99.90
43143;DHT22;28750;59.842;17.584;2023-10-13T07:19:15;5.20;99.90
43143;DHT22;28750;59.842;17.584;2023-10-13T07:21:44;5.50;99.90
43143;DHT22;28750;59.842;17.584;2023-10-13T07:24:13;5.60;99.90
43143;DHT22;28750;59.842;17.584;2023-10-13T07:26:41;5.70;99.90
43143;DHT22;28750;59.842;17.584;2023-10-13T07:29:11;5.80;99.90
43143;DHT22;28750;59.842;17.584;2023-10-13T07:31:39;5.90;99.90
43143;DHT22;28750;59.842;17.584;2023-10-13T07:34:10;5.90;99.90
43143;DHT22;28750;59.842;17.584;2023-10-13T07:36:54;6.00;99.90
43143;DHT22;28750;59.842;17.584;2023-10-13T07:39:25;6.10;99.90
43143;DHT22;28750;59.842;17.584;2023-10-13T07:41:53;6.10;99.90
43143;DHT22;28750;59.842;17.584;2023-10-13T07:44:29;6.20;99.90
43143;DHT22;28750;59.842;17.584;2023-10-13T07:47:00;6.20;99.90
43143;DHT22;28750;59.842;17.584;2023-10-13T07:49:32;6.30;99.90
43143;DHT22;28750;59.842;17.584;2023-10-13T07:52:03;6.20;99.90
43143;DHT22;28750;59.842;17.584;2023-10-13T07:54:44;6.30;99.90
43143;DHT22;28750;59.842;17.584;2023-10-13T07:57:13;6.40;99.90
43143;DHT22;28750;59.842;17.584;2023-10-13T07:59:43;6.40;99.90
43143;DHT22;28750;59.842;17.584;2023-10-13T08:02:18;6.50;99.90
43143;DHT22;28750;59.842;17.584;2023-10-13T08:05:12;6.40;99.90
43143;DHT22;28750;59.842;17.584;2023-10-13T08:07:40;6.40;99.90
43143;DHT22;28750;59.842;17.584;2023-10-13T08:10:08;6.40;99.90
43143;DHT22;28750;59.842;17.584;2023-10-13T08:12:35;6.40;99.90
43143;DHT22;28750;59.842;17.584;2023-10-13T08:15:06;6.50;99.90
43143;DHT22;28750;59.842;17.584;2023-10-13T08:18:00;6.50;99.90
43143;DHT22;28750;59.842;17.584;2023-10-13T08:20:33;6.60;99.90
43143;DHT22;28750;59.842;17.584;2023-10-13T08:23:06;6.60;99.90
43143;DHT22;28750;59.842;17.584;2023-10-13T08:26:00;6.70;99.90
43143;DHT22;28750;59.842;17.584;2023-10-13T08:28:50;6.70;99.90
43143;DHT22;28750;59.842;17.584;2023-10-13T08:31:21;6.70;99.90
43143;DHT22;28750;59.842;17.584;2023-10-13T08:33:51;6.70;99.90
43143;DHT22;28750;59.842;17.584;2023-10-13T08:36:31;6.70;99.90
43143;DHT22;28750;59.842;17.584;2023-10-13T08:38:58;6.80;99.90
43143;DHT22;28750;59.842;17.584;2023-10-13T08:41:46;6.80;99.90
43143;DHT22;28750;59.842;17.584;2023-10-13T08:44:27;7.00;99.90
43143;DHT22;28750;59.842;17.584;2023-10-13T08:46:59;7.00;99.90
43143;DHT22;28750;59.842;17.584;2023-10-13T08:49:41;7.20;99.90
43143;DHT22;28750;59.842;17.584;2023-10-13T08:52:17;7.30;99.90
43143;DHT22;28750;59.842;17.584;2023-10-13T08:55:12;7.40;99.90
43143;DHT22;28750;59.842;17.584;2023-10-13T08:58:01;7.40;99.90
43143;DHT22;28750;59.842;17.584;2023-10-13T09:00:38;7.50;99.90
43143;DHT22;28750;59.842;17.584;2023-10-13T09:03:20;7.60;99.90
43143;DHT22;28750;59.842;17.584;2023-10-13T09:06:04;7.60;99.90
43143;DHT22;28750;59.842;17.584;2023-10-13T09:08:32;7.80;99.90
43143;DHT22;28750;59.842;17.584;2023-10-13T09:11:10;7.80;99.90
43143;DHT22;28750;59.842;17.584;2023-10-13T09:13:38;7.80;99.90
43143;DHT22;28750;59.842;17.584;2023-10-13T09:16:14;8.00;99.90
43143;DHT22;28750;59.842;17.584;2023-10-13T09:19:07;8.10;99.90
43143;DHT22;28750;59.842;17.584;2023-10-13T09:21:41;8.20;99.90
43143;DHT22;28750;59.842;17.584;2023-10-13T09:24:20;8.30;99.90
43143;DHT22;28750;59.842;17.584;2023-10-13T09:26:59;8.30;99.90
43143;DHT22;28750;59.842;17.584;2023-10-13T09:29:27;8.20;99.90
43143;DHT22;28750;59.842;17.584;2023-10-13T09:32:02;8.30;99.90
43143;DHT22;28750;59.842;17.584;2023-10-13T09:34:29;8.30;99.90
43143;DHT22;28750;59.842;17.584;2023-10-13T09:36:59;8.40;99.90
43143;DHT22;28750;59.842;17.584;2023-10-13T09:39:28;8.50;99.90
43143;DHT22;28750;59.842;17.584;2023-10-13T09:42:10;8.50;99.90
43143;DHT22;28750;59.842;17.584;2023-10-13T09:44:38;8.70;99.90
43143;DHT22;28750;59.842;17.584;2023-10-13T09:47:10;8.80;99.90
43143;DHT22;28750;59.842;17.584;2023-10-13T09:49:46;8.70;99.90
43143;DHT22;28750;59.842;17.584;2023-10-13T09:52:16;8.80;99.90
43143;DHT22;28750;59.842;17.584;2023-10-13T09:57:50;9.10;99.90
43143;DHT22;28750;59.842;17.584;2023-10-13T10:00:23;9.10;99.90
43143;DHT22;28750;59.842;17.584;2023-10-13T10:03:09;9.30;99.90
43143;DHT22;28750;59.842;17.584;2023-10-13T10:06:02;9.40;99.90
43143;DHT22;28750;59.842;17.584;2023-10-13T10:08:39;9.50;99.90
43143;DHT22;28750;59.842;17.584;2023-10-13T10:19:18;9.80;99.90
43143;DHT22;28750;59.842;17.584;2023-10-13T10:21:44;9.60;99.90
43143;DHT22;28750;59.842;17.584;2023-10-13T10:24:21;9.90;99.90
43143;DHT22;28750;59.842;17.584;2023-10-13T10:26:55;10.10;99.90
43143;DHT22;28750;59.842;17.584;2023-10-13T10:29:23;10.10;3.20
43143;DHT22;28750;59.842;17.584;2023-10-13T10:31:50;10.50;1.00
43143;DHT22;28750;59.842;17.584;2023-10-13T10:34:17;10.50;99.90
43143;DHT22;28750;59.842;17.584;2023-10-13T10:36:54;10.30;99.90
43143;DHT22;28750;59.842;17.584;2023-10-13T10:39:36;10.10;99.90
43143;DHT22;28750;59.842;17.584;2023-10-13T10:42:12;10.30;99.90
43143;DHT22;28750;59.842;17.584;2023-10-13T10:44:50;10.60;99.90
43143;DHT22;28750;59.842;17.584;2023-10-13T10:47:21;10.80;99.90
43143;DHT22;28750;59.842;17.584;2023-10-13T10:50:00;11.00;3.00
43143;DHT22;28750;59.842;17.584;2023-10-13T10:52:34;10.90;99.90
43143;DHT22;28750;59.842;17.584;2023-10-13T10:55:03;10.80;99.90
43143;DHT22;28750;59.842;17.584;2023-10-13T10:57:33;11.00;99.90
43143;DHT22;28750;59.842;17.584;2023-10-13T11:00:05;10.80;92.20
43143;DHT22;28750;59.842;17.584;2023-10-13T11:02:40;10.70;1.00
43143;DHT22;28750;59.842;17.584;2023-10-13T11:05:07;10.80;99.90
43143;DHT22;28750;59.842;17.584;2023-10-13T11:07:36;10.90;99.90
43143;DHT22;28750;59.842;17.584;2023-10-13T11:10:10;10.90;99.90
43143;DHT22;28750;59.842;17.584;2023-10-13T11:12:59;10.80;99.90
43143;DHT22;28750;59.842;17.584;2023-10-13T11:15:42;10.70;24.20
43143;DHT22;28750;59.842;17.584;2023-10-13T11:18:11;10.70;1.00
43143;DHT22;28750;59.842;17.584;2023-10-13T11:20:47;10.80;99.90
43143;DHT22;28750;59.842;17.584;2023-10-13T11:23:20;10.90;1.00
43143;DHT22;28750;59.842;17.584;2023-10-13T11:25:57;10.90;1.00
43143;DHT22;28750;59.842;17.584;2023-10-13T11:28:24;10.80;99.90
43143;DHT22;28750;59.842;17.584;2023-10-13T11:30:58;10.80;99.90
43143;DHT22;28750;59.842;17.584;2023-10-13T11:33:26;10.70;99.90
43143;DHT22;28750;59.842;17.584;2023-10-13T11:35:54;10.60;99.90
43143;DHT22;28750;59.842;17.584;2023-10-13T11:38:29;10.60;99.90
43143;DHT22;28750;59.842;17.584;2023-10-13T11:41:08;10.70;99.90
43143;DHT22;28750;59.842;17.584;2023-10-13T11:43:50;10.90;99.90
43143;DHT22;28750;59.842;17.584;2023-10-13T11:46:35;10.90;99.90
43143;DHT22;28750;59.842;17.584;2023-10-13T11:49:19;11.00;99.90
43143;DHT22;28750;59.842;17.584;2023-10-13T11:51:57;11.10;99.90
43143;DHT22;28750;59.842;17.584;2023-10-13T11:54:34;11.10;99.90
43143;DHT22;28750;59.842;17.584;2023-10-13T11:57:08;11.10;12.30
43143;DHT22;28750;59.842;17.584;2023-10-13T11:59:35;11.00;99.90
43143;DHT22;28750;59.842;17.584;2023-10-13T12:02:10;11.00;32.10
43143;DHT22;28750;59.842;17.584;2023-10-13T12:04:54;10.90;9.80
43143;DHT22;28750;59.842;17.584;2023-10-13T12:07:23;10.80;99.90
43143;DHT22;28750;59.842;17.584;2023-10-13T12:09:53;10.80;99.90
43143;DHT22;28750;59.842;17.584;2023-10-13T12:12:32;10.80;99.90
43143;DHT22;28750;59.842;17.584;2023-10-13T12:15:07;10.80;99.90
43143;DHT22;28750;59.842;17.584;2023-10-13T12:17:51;10.80;1.00
43143;DHT22;28750;59.842;17.584;2023-10-13T12:20:18;10.80;99.90
43143;DHT22;28750;59.842;17.584;2023-10-13T12:22:59;10.80;1.00
43143;DHT22;28750;59.842;17.584;2023-10-13T12:25:37;10.80;1.00
43143;DHT22;28750;59.842;17.584;2023-10-13T12:28:21;10.80;1.00
43143;DHT22;28750;59.842;17.584;2023-10-13T12:30:49;10.70;99.90
43143;DHT22;28750;59.842;17.584;2023-10-13T12:33:21;10.80;1.00
43143;DHT22;28750;59.842;17.584;2023-10-13T12:36:02;10.80;99.90
43143;DHT22;28750;59.842;17.584;2023-10-13T12:38:55;10.80;99.90
43143;DHT22;28750;59.842;17.584;2023-10-13T12:41:40;10.80;99.90
43143;DHT22;28750;59.842;17.584;2023-10-13T12:44:24;10.80;99.90
43143;DHT22;28750;59.842;17.584;2023-10-13T12:47:08;10.70;1.00
43143;DHT22;28750;59.842;17.584;2023-10-13T12:49:53;10.80;73.10
43143;DHT22;28750;59.842;17.584;2023-10-13T12:52:25;10.80;99.90
43143;DHT22;28750;59.842;17.584;2023-10-13T12:54:53;10.80;72.10
43143;DHT22;28750;59.842;17.584;2023-10-13T12:57:33;10.80;1.00
43143;DHT22;28750;59.842;17.584;2023-10-13T13:00:02;10.80;99.90
43143;DHT22;28750;59.842;17.584;2023-10-13T13:02:42;10.70;1.00
43143;DHT22;28750;59.842;17.584;2023-10-13T13:05:09;10.70;1.00
43143;DHT22;28750;59.842;17.584;2023-10-13T13:07:39;10.70;1.00
43143;DHT22;28750;59.842;17.584;2023-10-13T13:10:18;10.80;99.90
43143;DHT22;28750;59.842;17.584;2023-10-13T13:12:46;10.80;99.90
43143;DHT22;28750;59.842;17.584;2023-10-13T13:15:13;10.70;66.50
43143;DHT22;28750;59.842;17.584;2023-10-13T13:17:40;10.70;99.90
43143;DHT22;28750;59.842;17.584;2023-10-13T13:20:08;10.70;21.50
43143;DHT22;28750;59.842;17.584;2023-10-13T13:22:53;10.60;1.00
43143;DHT22;28750;59.842;17.584;2023-10-13T13:25:21;10.60;1.00
43143;DHT22;28750;59.842;17.584;2023-10-13T13:27:52;10.60;99.90
43143;DHT22;28750;59.842;17.584;2023-10-13T13:30:19;10.50;99.90
43143;DHT22;28750;59.842;17.584;2023-10-13T13:32:48;10.60;99.90
43143;DHT22;28750;59.842;17.584;2023-10-13T13:35:16;10.60;99.90
43143;DHT22;28750;59.842;17.584;2023-10-13T13:37:44;10.50;99.90
43143;DHT22;28750;59.842;17.584;2023-10-13T13:40:11;10.60;99.90
43143;DHT22;28750;59.842;17.584;2023-10-13T13:42:44;10.50;29.90
43143;DHT22;28750;59.842;17.584;2023-10-13T13:45:15;10.50;1.00
43143;DHT22;28750;59.842;17.584;2023-10-13T13:47:50;10.60;99.90
43143;DHT22;28750;59.842;17.584;2023-10-13T13:50:22;10.50;71.50
43143;DHT22;28750;59.842;17.584;2023-10-13T13:52:53;10.50;94.80
43143;DHT22;28750;59.842;17.584;2023-10-13T13:55:25;10.40;1.00
43143;DHT22;28750;59.842;17.584;2023-10-13T13:57:56;10.30;99.90
43143;DHT22;28750;59.842;17.584;2023-10-13T14:00:23;10.30;99.90
43143;DHT22;28750;59.842;17.584;2023-10-13T14:03:07;10.30;99.90
43143;DHT22;28750;59.842;17.584;2023-10-13T14:05:44;10.30;99.90
43143;DHT22;28750;59.842;17.584;2023-10-13T14:08:11;10.30;99.90
43143;DHT22;28750;59.842;17.584;2023-10-13T14:10:40;10.20;1.00
43143;DHT22;28750;59.842;17.584;2023-10-13T14:13:21;10.20;99.90
43143;DHT22;28750;59.842;17.584;2023-10-13T14:16:08;10.20;89.10
43143;DHT22;28750;59.842;17.584;2023-10-13T14:18:52;10.10;82.60
43143;DHT22;28750;59.842;17.584;2023-10-13T14:21:19;10.10;99.90
43143;DHT22;28750;59.842;17.584;2023-10-13T14:23:51;10.00;99.90
43143;DHT22;28750;59.842;17.584;2023-10-13T14:26:20;10.00;99.90
43143;DHT22;28750;59.842;17.584;2023-10-13T14:28:54;10.00;10.40
43143;DHT22;28750;59.842;17.584;2023-10-13T14:31:28;10.00;48.40
43143;DHT22;28750;59.842;17.584;2023-10-13T14:33:55;9.90;90.10
43143;DHT22;28750;59.842;17.584;2023-10-13T14:36:24;9.90;99.90
43143;DHT22;28750;59.842;17.584;2023-10-13T14:38:57;9.80;99.90
43143;DHT22;28750;59.842;17.584;2023-10-13T14:41:24;9.80;99.90
43143;DHT22;28750;59.842;17.584;2023-10-13T14:43:51;9.80;99.90
43143;DHT22;28750;59.842;17.584;2023-10-13T14:46:22;9.80;99.90
43143;DHT22;28750;59.842;17.584;2023-10-13T14:48:53;9.80;99.90
43143;DHT22;28750;59.842;17.584;2023-10-13T14:51:20;9.80;99.90
43143;DHT22;28750;59.842;17.584;2023-10-13T14:53:47;9.80;99.90
43143;DHT22;28750;59.842;17.584;2023-10-13T14:56:16;9.80;99.90
43143;DHT22;28750;59.842;17.584;2023-10-13T14:58:44;9.80;99.90
43143;DHT22;28750;59.842;17.584;2023-10-13T15:01:16;9.80;99.90
43143;DHT22;28750;59.842;17.584;2023-10-13T15:03:49;9.80;99.90
43143;DHT22;28750;59.842;17.584;2023-10-13T15:06:21;9.70;99.90
43143;DHT22;28750;59.842;17.584;2023-10-13T15:08:52;9.70;1.00
43143;DHT22;28750;59.842;17.584;2023-10-13T15:11:20;9.70;99.90
43143;DHT22;28750;59.842;17.584;2023-10-13T15:13:55;9.70;1.00
43143;DHT22;28750;59.842;17.584;2023-10-13T15:16:24;9.60;91.30
43143;DHT22;28750;59.842;17.584;2023-10-13T15:18:52;9.60;99.90
43143;DHT22;28750;59.842;17.584;2023-10-13T15:21:22;9.60;99.90
43143;DHT22;28750;59.842;17.584;2023-10-13T15:23:52;9.60;99.90
43143;DHT22;28750;59.842;17.584;2023-10-13T15:26:21;9.60;99.90
43143;DHT22;28750;59.842;17.584;2023-10-13T15:28:49;9.60;99.90
43143;DHT22;28750;59.842;17.584;2023-10-13T15:31:19;9.60;99.90
43143;DHT22;28750;59.842;17.584;2023-10-13T15:33:54;9.60;99.90
43143;DHT22;28750;59.842;17.584;2023-10-13T15:36:23;9.70;99.90
43143;DHT22;28750;59.842;17.584;2023-10-13T15:38:51;9.60;99.90
43143;DHT22;28750;59.842;17.584;2023-10-13T15:41:22;9.60;99.10
43143;DHT22;28750;59.842;17.584;2023-10-13T15:43:49;9.50;99.90
43143;DHT22;28750;59.842;17.584;2023-10-13T15:46:18;9.60;99.90
43143;DHT22;28750;59.842;17.584;2023-10-13T15:48:51;9.50;99.90
43143;DHT22;28750;59.842;17.584;2023-10-13T15:51:19;9.50;25.30
43143;DHT22;28750;59.842;17.584;2023-10-13T15:53:46;9.50;1.00
43143;DHT22;28750;59.842;17.584;2023-10-13T15:56:14;9.50;1.00
43143;DHT22;28750;59.842;17.584;2023-10-13T15:58:43;9.50;99.90
43143;DHT22;28750;59.842;17.584;2023-10-13T16:01:12;9.50;99.90
43143;DHT22;28750;59.842;17.584;2023-10-13T16:03:40;9.40;99.90
43143;DHT22;28750;59.842;17.584;2023-10-13T16:06:12;9.40;99.90
43143;DHT22;28750;59.842;17.584;2023-10-13T16:08:40;9.40;99.90
43143;DHT22;28750;59.842;17.584;2023-10-13T16:11:13;9.30;99.90
43143;DHT22;28750;59.842;17.584;2023-10-13T16:13:47;9.20;1.00
43143;DHT22;28750;59.842;17.584;2023-10-13T16:16:21;9.20;1.00
43143;DHT22;28750;59.842;17.584;2023-10-13T16:18:52;9.30;36.00
43143;DHT22;28750;59.842;17.584;2023-10-13T16:21:20;9.20;99.90
43143;DHT22;28750;59.842;17.584;2023-10-13T16:23:48;9.10;99.90
43143;DHT22;28750;59.842;17.584;2023-10-13T16:26:19;9.00;22.40